DTTZ/TOE METAR and TAF weather

Enter ICAO airport designator
Station Type Date Time Source
DTTZ METAR 2022/07/01 02:00 UTC NOAA

DTTZ 010200Z 09013KT 9999 FEW033 33/16 Q1010


Station Type Date Time Source
DTTZ Decoded METAR 2022/07/01 02:00 UTC NOAA

Tozeur, Tunisia (DTTZ) 33-55N 008-06E 93M
Jun 30, 2022 - 10:00 PM EDT / 2022.07.01 0200 UTC
Wind: from the E (090 degrees) at 15 MPH (13 KT):0
Visibility: greater than 7 mile(s):0
Sky conditions: mostly clear
Temperature: 91 F (33 C)
Dew Point: 60 F (16 C)
Relative Humidity: 36%
Pressure (altimeter): 29.83 in. Hg (1010 hPa)
ob: DTTZ 010200Z 09013KT 9999 FEW033 33/16 Q1010
cycle: 2

Station Type Date Time Source
DTTZ TAF 2022/06/30 18:39 UTC NOAA

TAF DTTZ 301700Z 3018/0118 22005KT 9999 FEW033
BECMG 3018/3020 09012KT
BECMG 0110/0112 23010KT
BECMG 0116/0118 VRB03KT

Example: see airport list